createdAt,value
2023-05-23T00:00:16.549Z,141.967404
2023-05-23T00:05:16.160Z,125.583475
2023-05-23T00:10:16.496Z,136.227121
2023-05-23T00:15:16.693Z,137.361249
2023-05-23T00:20:15.923Z,128.298169
2023-05-23T00:25:15.936Z,109.492194
2023-05-23T00:30:15.798Z,99.866470
2023-05-23T00:35:16.395Z,96.780411
2023-05-23T00:40:15.987Z,81.224947
2023-05-23T00:45:15.837Z,78.286980
2023-05-23T00:50:16.229Z,87.211981
2023-05-23T00:55:16.099Z,99.613336
2023-05-23T01:00:15.884Z,101.907408
2023-05-23T01:05:16.400Z,104.220917
2023-05-23T01:10:15.989Z,143.409252
2023-05-23T01:15:16.116Z,163.592228
2023-05-23T01:20:15.808Z,107.798225
2023-05-23T01:25:15.993Z,109.712151
2023-05-23T01:30:15.805Z,139.103963
2023-05-23T01:35:16.825Z,119.610224
2023-05-23T01:40:15.729Z,105.090349
2023-05-23T01:45:16.091Z,91.450950
2023-05-23T01:50:15.774Z,73.723431
2023-05-23T01:55:16.942Z,75.940763
2023-05-23T02:00:15.733Z,71.667272
2023-05-23T02:05:16.177Z,72.917097
2023-05-23T02:10:16.485Z,66.710278
2023-05-23T02:15:16.070Z,60.878963
2023-05-23T02:20:16.463Z,55.920765
2023-05-23T02:25:16.438Z,49.312721
2023-05-23T02:30:15.996Z,41.697485
2023-05-23T02:35:16.213Z,34.738955
2023-05-23T02:40:16.025Z,26.951416
2023-05-23T02:45:17.013Z,20.054739
2023-05-23T02:50:15.963Z,16.734338
2023-05-23T02:55:16.131Z,16.407423
2023-05-23T03:00:15.739Z,14.008045
2023-05-23T03:05:15.862Z,11.995745
2023-05-23T03:10:17.006Z,10.842588
2023-05-23T03:15:16.117Z,8.832885
2023-05-23T03:20:16.644Z,6.518991
2023-05-23T03:25:15.811Z,4.541933
2023-05-23T03:30:16.173Z,2.575925
2023-05-23T03:35:15.811Z,1.382073
2023-05-23T03:40:16.738Z,0.653812
2023-05-23T03:45:16.242Z,0.173247
2023-05-23T03:50:16.479Z,0.034295
2023-05-23T03:55:16.829Z,0.004573
2023-05-23T04:00:15.998Z,0.000000
2023-05-23T04:05:16.665Z,0.000000
2023-05-23T04:10:16.134Z,0.000000
2023-05-23T04:15:16.134Z,0.000000
2023-05-23T04:20:15.850Z,0.000000
2023-05-23T04:25:15.844Z,0.000000
2023-05-23T04:30:15.828Z,0.000000
2023-05-23T04:35:16.515Z,0.000000
2023-05-23T04:40:16.768Z,0.000000
2023-05-23T04:45:15.903Z,0.000000
2023-05-23T04:50:16.411Z,0.000000
2023-05-23T04:55:15.806Z,0.000000
2023-05-23T05:00:15.920Z,0.000000
2023-05-23T05:05:15.870Z,0.000000
2023-05-23T05:10:16.039Z,0.000000
2023-05-23T05:15:16.242Z,0.000000
2023-05-23T05:20:16.008Z,0.000000
2023-05-23T05:25:15.916Z,0.000000
2023-05-23T05:30:15.756Z,0.000000
2023-05-23T05:35:16.962Z,0.000000
2023-05-23T05:40:16.224Z,0.000000
2023-05-23T05:45:15.996Z,0.000000
2023-05-23T05:50:16.584Z,0.000000
2023-05-23T05:55:16.307Z,0.000000
2023-05-23T06:00:16.532Z,0.000000
2023-05-23T06:05:16.618Z,0.000000
2023-05-23T06:10:16.599Z,0.000000
2023-05-23T06:15:16.063Z,0.000000
2023-05-23T06:20:15.956Z,0.000000
2023-05-23T06:25:16.291Z,0.000000
2023-05-23T06:30:16.172Z,0.000000
2023-05-23T06:35:16.520Z,0.000000
2023-05-23T06:40:15.866Z,0.000000
2023-05-23T06:45:16.725Z,0.000000
2023-05-23T06:50:16.002Z,0.000000
2023-05-23T06:55:16.219Z,0.000000
2023-05-23T07:00:16.457Z,0.000000
2023-05-23T07:05:16.437Z,0.000000
2023-05-23T07:10:17.079Z,0.000000
2023-05-23T07:15:16.050Z,0.000000
2023-05-23T07:20:15.900Z,0.000000
2023-05-23T07:25:16.093Z,0.000000
2023-05-23T07:30:16.388Z,0.000000
2023-05-23T07:35:16.718Z,0.000000
2023-05-23T07:40:15.984Z,0.000000
2023-05-23T07:45:16.093Z,0.000000
2023-05-23T07:50:15.684Z,0.000000
2023-05-23T07:55:16.233Z,0.000000
2023-05-23T08:00:16.452Z,0.000000
2023-05-23T08:05:16.832Z,0.000000
2023-05-23T08:10:17.330Z,0.000000
2023-05-23T08:15:16.128Z,0.000000
2023-05-23T08:20:17.292Z,0.000000
2023-05-23T08:25:15.983Z,0.000000
2023-05-23T08:30:16.617Z,0.000000
2023-05-23T08:35:16.141Z,0.000000
2023-05-23T08:40:15.798Z,0.000000
2023-05-23T08:45:16.119Z,0.000000
2023-05-23T08:50:17.636Z,0.000000
2023-05-23T08:55:16.073Z,0.000000
2023-05-23T09:00:16.778Z,0.000000
2023-05-23T09:05:15.832Z,0.000000
2023-05-23T09:10:16.584Z,0.000000
2023-05-23T09:15:16.058Z,0.000000
2023-05-23T09:20:16.760Z,0.000000
2023-05-23T09:25:16.355Z,0.000000
2023-05-23T09:30:15.778Z,0.000000
2023-05-23T09:35:16.549Z,0.000000
2023-05-23T09:40:16.233Z,0.000000
2023-05-23T09:45:16.509Z,0.000000
2023-05-23T09:50:16.489Z,0.000000
2023-05-23T09:55:16.149Z,0.000000
2023-05-23T10:00:16.499Z,0.000000
2023-05-23T10:05:15.999Z,0.000000
2023-05-23T10:10:16.440Z,0.000000
2023-05-23T10:15:16.347Z,0.000000
2023-05-23T10:20:16.400Z,0.000000
2023-05-23T10:25:16.672Z,0.000000
2023-05-23T10:30:16.576Z,0.000000
2023-05-23T10:35:16.416Z,0.000000
2023-05-23T10:40:16.370Z,0.000000
2023-05-23T10:45:16.168Z,0.000000
2023-05-23T10:50:16.357Z,0.000000
2023-05-23T10:55:16.020Z,0.000000
2023-05-23T11:00:15.702Z,0.000000
2023-05-23T11:05:15.909Z,0.000000
2023-05-23T11:10:16.386Z,0.000000
2023-05-23T11:15:15.766Z,0.000000
2023-05-23T11:20:15.866Z,0.000000
2023-05-23T11:25:15.751Z,0.000000
2023-05-23T11:30:15.921Z,0.000000
2023-05-23T11:35:16.337Z,0.000000
2023-05-23T11:40:15.914Z,0.000000
2023-05-23T11:45:16.876Z,0.000000
2023-05-23T11:50:16.170Z,0.000000
2023-05-23T11:55:21.116Z,0.002265
2023-05-23T12:00:16.882Z,0.000000
2023-05-23T12:05:16.187Z,0.000000
2023-05-23T12:10:16.203Z,0.000000
2023-05-23T12:15:16.717Z,0.000000
2023-05-23T12:20:16.425Z,0.013848
2023-05-23T12:25:15.796Z,0.279656
2023-05-23T12:30:16.620Z,1.266621
2023-05-23T12:35:16.286Z,3.086887
2023-05-23T12:40:16.400Z,5.290706
2023-05-23T12:45:15.822Z,7.713697
2023-05-23T12:50:16.105Z,10.116641
2023-05-23T12:55:16.337Z,12.506242
2023-05-23T13:00:16.334Z,15.002058
2023-05-23T13:05:16.397Z,17.810247
2023-05-23T13:10:16.738Z,22.493599
2023-05-23T13:15:16.185Z,26.137053
2023-05-23T13:20:16.023Z,28.879013
2023-05-23T13:25:16.086Z,31.027157
2023-05-23T13:30:16.227Z,34.068581
2023-05-23T13:35:16.555Z,44.666795
2023-05-23T13:40:16.385Z,61.882296
2023-05-23T13:45:16.218Z,60.599271
2023-05-23T13:50:16.025Z,61.509705
2023-05-23T13:55:15.850Z,63.257592
2023-05-23T14:00:16.397Z,71.614153
2023-05-23T14:05:16.326Z,68.709987
2023-05-23T14:10:16.604Z,81.335395
2023-05-23T14:15:16.373Z,126.801025
2023-05-23T14:20:16.962Z,160.638891
2023-05-23T14:25:16.376Z,112.576288
2023-05-23T14:30:15.925Z,158.038130
2023-05-23T14:35:16.065Z,150.975889
2023-05-23T14:40:16.171Z,117.803132
2023-05-23T14:45:18.703Z,153.973281
2023-05-23T14:50:16.354Z,187.100418
2023-05-23T14:55:17.202Z,202.854124
2023-05-23T15:00:15.904Z,205.536683
2023-05-23T15:05:15.852Z,238.541313
2023-05-23T15:10:16.757Z,250.667682
2023-05-23T15:15:16.538Z,262.349306
2023-05-23T15:20:16.004Z,273.289661
2023-05-23T15:25:16.109Z,285.868765
2023-05-23T15:30:16.278Z,299.783396
2023-05-23T15:35:17.138Z,314.628724
2023-05-23T15:40:17.088Z,329.564601
2023-05-23T15:45:15.690Z,344.135066
2023-05-23T15:50:15.698Z,360.636278
2023-05-23T15:55:15.964Z,377.387891
2023-05-23T16:00:16.140Z,392.451813
2023-05-23T16:05:16.430Z,416.098480
2023-05-23T16:10:16.412Z,392.350821
2023-05-23T16:15:16.494Z,272.798211
2023-05-23T16:20:16.169Z,262.886740
2023-05-23T16:25:15.705Z,282.746614
2023-05-23T16:30:15.807Z,293.162999
2023-05-23T16:35:15.943Z,307.778254
2023-05-23T16:40:17.665Z,312.615628
2023-05-23T16:45:16.776Z,371.523356
2023-05-23T16:50:17.340Z,373.129338
2023-05-23T16:55:16.819Z,407.138138
2023-05-23T17:00:16.780Z,525.600293
2023-05-23T17:05:16.008Z,601.789306
2023-05-23T17:10:18.139Z,644.570380
2023-05-23T17:15:15.925Z,588.086896
2023-05-23T17:20:15.890Z,599.549058
2023-05-23T17:25:16.141Z,426.697744
2023-05-23T17:30:15.826Z,565.852309
2023-05-23T17:35:15.998Z,605.695810
2023-05-23T17:40:16.651Z,685.498841
2023-05-23T17:45:16.228Z,695.187458
2023-05-23T17:50:16.665Z,706.754897
2023-05-23T17:55:15.963Z,719.629326
2023-05-23T18:00:15.956Z,730.794448
2023-05-23T18:05:15.920Z,741.873672
2023-05-23T18:10:16.594Z,750.290229
2023-05-23T18:15:15.851Z,765.004449
2023-05-23T18:20:15.795Z,777.823750
2023-05-23T18:25:16.622Z,789.934508
2023-05-23T18:30:16.380Z,800.727397
2023-05-23T18:35:16.379Z,812.254370
2023-05-23T18:40:16.164Z,824.314031
2023-05-23T18:45:15.695Z,836.471712
2023-05-23T18:50:16.035Z,840.739053
2023-05-23T18:55:15.714Z,863.469184
2023-05-23T19:00:16.817Z,883.690915
2023-05-23T19:05:15.926Z,905.860024
2023-05-23T19:10:17.018Z,867.378141
2023-05-23T19:15:16.830Z,861.384791
2023-05-23T19:20:17.114Z,859.322578
2023-05-23T19:25:16.211Z,914.491661
2023-05-23T19:30:17.097Z,906.924031
2023-05-23T19:35:16.967Z,939.657756
2023-05-23T19:40:15.929Z,946.928781
2023-05-23T19:45:16.113Z,958.174425
2023-05-23T19:50:16.298Z,861.943533
2023-05-23T19:55:17.138Z,956.047761
2023-05-23T20:00:16.151Z,976.897174
2023-05-23T20:05:16.908Z,898.394671
2023-05-23T20:10:16.199Z,788.318476
2023-05-23T20:15:21.746Z,694.920883
2023-05-23T20:20:16.364Z,883.427587
2023-05-23T20:25:16.174Z,950.196872
2023-05-23T20:30:16.325Z,962.182877
2023-05-23T20:35:16.153Z,967.867328
2023-05-23T20:40:16.141Z,957.133774
2023-05-23T20:45:16.935Z,951.258715
2023-05-23T20:50:16.094Z,948.051948
2023-05-23T20:55:16.324Z,945.129595
2023-05-23T21:00:15.885Z,943.225057
2023-05-23T21:05:16.078Z,935.675571
2023-05-23T21:10:16.497Z,929.834281
2023-05-23T21:15:16.272Z,919.399424
2023-05-23T21:20:16.134Z,919.976874
2023-05-23T21:25:17.278Z,934.214421
2023-05-23T21:30:16.076Z,937.812513
2023-05-23T21:35:16.074Z,923.144218
2023-05-23T21:40:15.853Z,896.623908
2023-05-23T21:45:16.270Z,890.122149
2023-05-23T21:50:16.013Z,871.047612
2023-05-23T21:55:17.441Z,822.017244
2023-05-23T22:00:17.028Z,800.562218
2023-05-23T22:05:16.105Z,709.112834
2023-05-23T22:10:16.959Z,651.849290
2023-05-23T22:15:16.860Z,559.475082
2023-05-23T22:20:17.157Z,467.061442
2023-05-23T22:25:16.705Z,397.220899
2023-05-23T22:30:16.145Z,358.069459
2023-05-23T22:35:16.057Z,357.276615
2023-05-23T22:40:17.139Z,364.157797
2023-05-23T22:45:16.417Z,405.897804
2023-05-23T22:50:16.623Z,446.475345
2023-05-23T22:55:16.355Z,477.596951
2023-05-23T23:00:16.372Z,476.522561
2023-05-23T23:05:16.004Z,405.317825
2023-05-23T23:10:16.913Z,419.044081
2023-05-23T23:15:16.155Z,474.555943
2023-05-23T23:20:16.113Z,434.523541
2023-05-23T23:25:15.895Z,381.730246
2023-05-23T23:30:15.799Z,336.012897
2023-05-23T23:35:16.189Z,299.008323
2023-05-23T23:40:15.715Z,252.022811
2023-05-23T23:45:16.570Z,214.296291
2023-05-23T23:50:15.799Z,188.035311
2023-05-23T23:55:21.830Z,175.086515
